Corpus Christi, TX (78401)

7:43 PM CDT on April 28, 2017 (GMT -0500)
Aransas Cliffs | | Change Station

Elev 22 ft 27.75 °N, 97.38 °W | Updated 54 seconds ago

Clear
Clear
81.6 °F
Feels Like 87 °F
N
10.1
Wind Variable Wind from SSE
Gusts 18.4 mph

Today
High -- | Low -- °F
--% Chance of Precip.
Yesterday
High -- | Low -- °F
Precip. -- in
Pressure 29.52 in
Visibility 8.0 miles
Clouds Few 25000 ft
Heat Index 87 °F
Dew Point 73 °F
Humidity 75%
Rainfall 0.00 in
Snow Depth Not available.
6:52 AM 8:02 PM
Waxing Crescent, 9% visible
METAR KCRP 282351Z 15021KT 8SM FEW250 30/23 A2953 RMK AO2 PK WND 15030/2337 SLP997 T03000228 10344 20300 55001
Pressure 29.52 in
Visibility 8.0 miles
Clouds Few 25000 ft
Heat Index 87 °F
Dew Point 73 °F
Humidity 75%
Rainfall 0.00 in
Snow Depth Not available.
6:52 AM 8:02 PM
Waxing Crescent, 9% visible
METAR KCRP 282351Z 15021KT 8SM FEW250 30/23 A2953 RMK AO2 PK WND 15030/2337 SLP997 T03000228 10344 20300 55001

Get Severe Weather Alerts

Thanks for signing up!

Be on the lookout for a verification email in your inbox.

You'll start receiving the daily forecast at 8 AM.

×

10-Day Weather Forecast

Almanac

Astronomy

Apr. 28, 2017 Rise Set
Actual Time
Civil Twilight
Nautical Twilight
Astronomical Twilight
Moon
Length of Visible Light
Length of Day
Tomorrow will be .
, % of the Moon is Illuminated

Today's Extremes

State Highs State Lows

Community

WunderPhotos

WunderBlog® & News

Nearby

Air Quality

  Air Quality AQ Index Pollutant
Not available.

Snow Depth

Station Depth Elevation

Earthquake Activity

City Distance Mag. Time & Date
Minimum magnitude displayed is 2.5.

Coastal Water Temperatures

Place Temperature

Stations

Nearby Weather Stations

Station Location Temp. Windchill Dew Point Humidity Wind Precip. Elev Updated Type
                   

Watches & Warnings

There are currently no watches in effect.